GKN - Gulkana

Pirep is a free, collaborative database of all public and private airports located within the United States. All pilots are welcome to contribute, edit, and improve any airport they have local knowledge about, no registration required.
Are you familiar with this airport? Help out other pilots by adding your local knowledge.
Uploaded photos will be licensed under a CC BY-SA 4.0 license. Please only upload photos you have the rights to use.
Tags
Public
Undocu­mented
METAR / TAF
Webcam
Edit Tags
Food
Camping
Lodging
Car Rental
Bicycles
Swimming
Golfing
Fishing
Hot Springs
Museum
Flying Clubs
Airpark
Upcoming Events
No upcoming events. Is anything happening here soon?
*
*
*

Where exactly on/near the airport is this event taking place?

Is there a webpage with more information for this event?

Who should be contacted for more information?

What is this event all about?

Repeat every
Description
Transient Parking
Fuel Location
Landing & Tie-down Fees
Crew Car Availability
Flying Clubs
WiFi Access
Airport Statistics
Location: Gulkana, AK
Elevation: 1,586ft
Sectional: Anchorage
Activation date: Jul 1947
Fuel: 100LL, A (prices)
Runway 15L/33R: 5,001ft
Runway 15R/33L: 2,300ft
Access: Open to the public
Current Weather — VFR
  • Weather data is strictly informational and not for flight planning purposes.
  • METAR
    2024-06-17 03:53:00 AKDT
    Ceiling Wind Temperature Dewpoint Weather Visbility
    Sky clear 180° @ 5kt 51°F 39°F N/A 10SM
    Raw: PAGK 171153Z AUTO 18005KT 10SM CLR 11/04 A3004 RMK AO2 SLP166 T01060044 10200 20100 50003 TSNO $
  • TAF
    2024-06-17 04:00:00 AKDT – 2024-06-17 14:00:00 AKDT
    Ceiling Wind Weather Visbility
    Sky clear 180° @ 5kt N/A 6SM
    Clouds: Scattered @ 10,000ft
    Raw: PAGK 171149Z 1712/1812 18005KT P6SM SCT100 FM172200 VRB10G20KT P6SM VCTS SCT060CB BKN100 FM180400 18008KT P6SM SCT050 BKN100
  • TAF
    2024-06-17 14:00:00 AKDT – 2024-06-17 20:00:00 AKDT
    Ceiling Wind Weather Visbility
    10,000ft Variable, gusts 20kt Thunderstorm in vicinity 6SM
    Clouds: Scattered @ 6,000ft, Broken @ 10,000ft
    Raw: PAGK 171149Z 1712/1812 18005KT P6SM SCT100 FM172200 VRB10G20KT P6SM VCTS SCT060CB BKN100 FM180400 18008KT P6SM SCT050 BKN100
  • TAF
    2024-06-17 20:00:00 AKDT – 2024-06-18 04:00:00 AKDT
    Ceiling Wind Weather Visbility
    10,000ft 180° @ 8kt N/A 6SM
    Clouds: Scattered @ 5,000ft, Broken @ 10,000ft
    Raw: PAGK 171149Z 1712/1812 18005KT P6SM SCT100 FM172200 VRB10G20KT P6SM VCTS SCT060CB BKN100 FM180400 18008KT P6SM SCT050 BKN100
Click/tap to add an annotation marker to the map
Direct links to live image URLs will be displayed inline on this page. URLs to separate webpages will be linked to.
URL:
Direct links to live image URLs will be displayed inline on this page. URLs to separate webpages will be linked to.
URL:
Remarks
  • Lctd 4 sm ne of glennallen.
  • Migratory birds on & invof arpt during spring.
  • Rwy 15r/33l is maintained as ski strip in winter and grvl strip the remainder of the year. visual inspection reqd before lndg. beacon twr and other obstacles on n apch end.
  • Moose & caribou on & around arpt.
  • Personnel and equipment may be working on rwy at any time.
  • Rwy condition not monitored; recommend visual inspection prior to landing.
  • Wx camera avbl on internet at https://weathercams.faa.gov
  • Suais 125.3/126.3 (1-800-758-8723).
Comments
Leave a comment What was your experience like at this airport?